ADDS METAR Data INFO
IDs: Format: Raw Decoded Include TAF

Data at: 0226 UTC 26 Jul 2017

KACT 260151Z 14008KT 10SM CLR 32/19 A3001 RMK AO2 SLP152 T03220189
KACT 260051Z 13009KT 10SM CLR 34/19 A3000 RMK AO2 SLP150 T03390189
KACT 252351Z 16009KT 10SM FEW085 35/19 A2999 RMK AO2 SLP148 T03500194 10378 20339 55009
KACT 252251Z 14011KT 10SM CLR 36/19 A2999 RMK AO2 SLP147 T03560194
KACT 252151Z 17009KT 10SM CLR 37/20 A3001 RMK AO2 SLP154 T03720200
KACT 252051Z 19013KT 10SM FEW060 37/20 A3002 RMK AO2 SLP157 T03720200 58020
KACT 251951Z 19012KT 10SM CLR 37/22 A3005 RMK AO2 SLP166 T03670217
KACT 251851Z 18014KT 10SM CLR 36/21 A3006 RMK AO2 SLP171 T03610211
KACT 251751Z 18011KT 10SM FEW043 35/22 A3008 RMK AO2 SLP178 T03500217 10350 20250 58003
KACT 251651Z 18013KT 10SM FEW033 33/23 A3009 RMK AO2 SLP180 T03330228
KACT 251551Z 18015KT 10SM SCT028 32/23 A3009 RMK AO2 SLP181 T03220228
KACT 251451Z 18011KT 10SM FEW022 31/23 A3009 RMK AO2 SLP182 T03060233 51006
KACT 251351Z 18013KT 9SM BKN014 28/24 A3009 RMK AO2 SLP181 T02780239
KACT 251251Z 18010KT 8SM CLR 26/23 A3007 RMK AO2 SLP175 T02610233
KACT 251151Z 17011KT 7SM FEW011 FEW022 25/23 A3006 RMK AO2 SLP171 T02500233 10267 20250 53012
KACT 251051Z 18010KT 9SM SCT021 25/23 A3004 RMK AO2 SLP166 T02500228
KACT 251040Z AUTO 18012KT 9SM BKN021 25/23 A3004 RMK AO2 T02500228
KACT 250951Z AUTO 17011KT 10SM SCT095 25/22 A3004 RMK AO2 SLP163 T02500222
KACT 250851Z AUTO 18010KT 10SM CLR 26/22 A3003 RMK AO2 SLP159 T02560222 51006
KACT 250751Z AUTO 18009KT 10SM CLR 26/22 A3002 RMK AO2 SLP158 T02560217
KACT 250651Z AUTO 18011KT 10SM CLR 27/22 A3001 RMK AO2 SLP155 T02670217
KACT 250551Z AUTO 14009KT 10SM CLR 26/24 A3001 RMK AO2 SLP153 T02610239 10317 20256 403330228 51018
KACT 250451Z 13008KT 10SM CLR 26/23 A2999 RMK AO2 SLP148 T02610228
KACT 250351Z 12003KT 10SM CLR 26/21 A2998 RMK AO2 SLP144 T02560211
KACT 250251Z 13004KT 10SM CLR 26/22 A2995 RMK AO2 SLP134 T02610217 53005
KACT 250151Z 15004KT 10SM CLR 28/22 A2995 RMK AO2 SLP133 T02830217
KACT 250051Z 14004KT 10SM CLR 30/23 A2994 RMK AO2 SLP129 T03000228
KACT 242351Z 19007KT 10SM CLR 32/22 A2994 RMK AO2 SLP129 T03170217 10333 20283 58002
KACT 242251Z 16015G24KT 10SM FEW038 31/22 A2995 RMK AO2 PK WND 14027/2229 SLP134 T03110217
KACT 242151Z 13013KT 10SM FEW032 33/24 A2994 RMK AO2 SLP130 T03330244
KACT 242051Z VRB06KT 10SM CLR 33/22 A2994 RMK AO2 SLP131 T03280222 58019
KACT 241951Z 00000KT 10SM CLR 31/22 A2997 RMK AO2 LTG DSNT E AND SE SLP141 T03060222
KACT 241851Z 34005KT 10SM CLR 30/24 A2999 RMK AO2 SLP146 T03000239
KACT 241751Z 35007KT 10SM FEW039 28/24 A3000 RMK AO2 RAB1654E38 SLP151 P0000 60000 T02780244 10306 20228 50008
KACT 241651Z 29006KT 10SM BKN090 OVC110 30/23 A3000 RMK AO2 SLP152 T03000233
KACT 241551Z 19008KT 10SM SCT100 SCT120 30/22 A2999 RMK AO2 RAB37E49 SLP147 P0000 T03000222
KACT 241451Z 17009KT 10SM CLR 29/22 A2998 RMK AO2 SLP143 T02940222 51011